createdAt,value
2023-03-07T00:01:16.869Z,93773.00
2023-03-07T00:03:50.053Z,93772.16
2023-03-07T00:06:36.939Z,93769.59
2023-03-07T00:09:16.877Z,93769.53
2023-03-07T00:12:03.845Z,93764.53
2023-03-07T00:14:36.967Z,93762.00
2023-03-07T00:17:23.850Z,93766.19
2023-03-07T00:19:56.983Z,93764.47
2023-03-07T00:22:43.849Z,93756.91
2023-03-07T00:25:17.938Z,93760.25
2023-03-07T00:28:04.898Z,93761.91
2023-03-07T00:30:37.943Z,93761.91
2023-03-07T00:33:24.884Z,93753.53
2023-03-07T00:36:09.959Z,93746.81
2023-03-07T00:38:57.895Z,93748.47
2023-03-07T00:41:34.021Z,93746.78
2023-03-07T00:44:21.846Z,93748.44
2023-03-07T00:46:54.962Z,93745.91
2023-03-07T00:49:41.892Z,93742.53
2023-03-07T00:52:15.056Z,93741.69
2023-03-07T00:55:01.969Z,93741.66
2023-03-07T00:57:34.971Z,93743.31
2023-03-07T01:00:21.867Z,93733.31
2023-03-07T01:03:03.861Z,93734.13
2023-03-07T01:05:57.880Z,93734.94
2023-03-07T01:08:44.880Z,93733.28
2023-03-07T01:11:19.038Z,93730.78
2023-03-07T01:14:07.933Z,93725.75
2023-03-07T01:16:44.206Z,93720.75
2023-03-07T01:19:30.885Z,93720.75
2023-03-07T01:22:03.976Z,93724.06
2023-03-07T01:24:50.893Z,93716.53
2023-03-07T01:27:23.984Z,93712.34
2023-03-07T01:30:12.861Z,93717.34
2023-03-07T01:32:52.913Z,93713.22
2023-03-07T01:35:45.872Z,93709.88
2023-03-07T01:38:19.012Z,93712.41
2023-03-07T01:41:08.885Z,93712.44
2023-03-07T01:43:42.990Z,93711.63
2023-03-07T01:46:56.932Z,93707.38
2023-03-07T01:49:47.901Z,93699.00
2023-03-07T01:52:55.005Z,93701.50
2023-03-07T01:55:43.895Z,93698.19
2023-03-07T01:58:20.012Z,93705.69
2023-03-07T02:01:06.959Z,93703.19
2023-03-07T02:03:49.993Z,93696.47
2023-03-07T02:06:41.947Z,93694.81
2023-03-07T02:09:27.876Z,93693.97
2023-03-07T02:12:08.897Z,93697.28
2023-03-07T02:14:53.895Z,93697.31
2023-03-07T02:17:27.982Z,93694.78
2023-03-07T02:20:56.884Z,93692.28
2023-03-07T02:24:13.998Z,93693.03
2023-03-07T02:27:00.890Z,93700.50
2023-03-07T02:29:40.910Z,93702.13
2023-03-07T02:32:34.961Z,93703.81
2023-03-07T02:35:37.979Z,93702.16
2023-03-07T02:38:31.903Z,93703.78
2023-03-07T02:41:19.881Z,93705.44
2023-03-07T02:43:59.933Z,93697.91
2023-03-07T02:46:46.889Z,93702.13
2023-03-07T02:49:27.897Z,93698.72
2023-03-07T02:52:21.903Z,93698.72
2023-03-07T02:55:15.896Z,93697.03
2023-03-07T02:58:02.922Z,93696.19
2023-03-07T03:00:37.103Z,93700.34
2023-03-07T03:03:23.911Z,93695.28
2023-03-07T03:06:03.943Z,93700.28
2023-03-07T03:08:50.932Z,93702.81
2023-03-07T03:11:30.902Z,93698.63
2023-03-07T03:14:24.932Z,93693.59
2023-03-07T03:17:11.942Z,93698.59
2023-03-07T03:19:45.020Z,93691.03
2023-03-07T03:22:31.915Z,93689.38
2023-03-07T03:25:05.010Z,93693.56
2023-03-07T03:27:51.909Z,93696.06
2023-03-07T03:30:26.721Z,93698.50
2023-03-07T03:33:13.916Z,93700.97
2023-03-07T03:35:47.092Z,93704.31
2023-03-07T03:38:33.926Z,93701.78
2023-03-07T03:41:11.038Z,93698.47
2023-03-07T03:43:58.017Z,93703.44
2023-03-07T03:46:31.035Z,93710.06
2023-03-07T03:49:22.935Z,93704.13
2023-03-07T03:51:56.038Z,93707.50
2023-03-07T03:54:42.961Z,93698.31
2023-03-07T03:57:18.042Z,93702.44
2023-03-07T04:00:04.911Z,93705.75
2023-03-07T04:02:38.214Z,93704.88
2023-03-07T04:05:24.928Z,93705.66
2023-03-07T04:08:04.942Z,93713.13
2023-03-07T04:10:58.989Z,93712.28
2023-03-07T04:13:45.956Z,93713.91
2023-03-07T04:16:19.157Z,93713.91
2023-03-07T04:19:05.944Z,93714.81
2023-03-07T04:21:39.754Z,93719.00
2023-03-07T04:24:26.931Z,93723.22
2023-03-07T04:27:00.135Z,93724.06
2023-03-07T04:29:46.926Z,93717.38
2023-03-07T04:32:20.177Z,93719.88
2023-03-07T04:35:06.981Z,93714.03
2023-03-07T04:37:46.935Z,93712.38
2023-03-07T04:40:41.061Z,93719.88
2023-03-07T04:43:34.946Z,93723.19
2023-03-07T04:46:15.990Z,93725.66
2023-03-07T04:48:55.959Z,93734.06
2023-03-07T04:51:30.045Z,93739.88
2023-03-07T04:54:16.937Z,93731.56
2023-03-07T04:56:50.107Z,93727.38
2023-03-07T04:59:37.087Z,93728.22
2023-03-07T05:02:10.065Z,93731.56
2023-03-07T05:04:56.974Z,93730.69
2023-03-07T05:07:37.068Z,93735.66
2023-03-07T05:10:23.927Z,93728.09
2023-03-07T05:12:57.064Z,93726.44
2023-03-07T05:15:44.055Z,93735.63
2023-03-07T05:18:24.013Z,93735.63
2023-03-07T05:21:10.952Z,93740.66
2023-03-07T05:23:44.120Z,93736.44
2023-03-07T05:26:30.959Z,93739.81
2023-03-07T05:29:04.547Z,93737.38
2023-03-07T05:31:50.965Z,93738.25
2023-03-07T05:34:24.121Z,93734.97
2023-03-07T05:37:10.942Z,93740.88
2023-03-07T05:39:44.051Z,93746.72
2023-03-07T05:42:30.957Z,93740.88
2023-03-07T05:45:04.139Z,93743.41
2023-03-07T05:47:50.973Z,93737.59
2023-03-07T05:50:31.957Z,93740.97
2023-03-07T05:53:25.977Z,93738.50
2023-03-07T05:56:12.992Z,93736.06
2023-03-07T05:58:52.975Z,93736.91
2023-03-07T06:01:47.968Z,93741.97
2023-03-07T06:04:42.006Z,93742.03
2023-03-07T06:07:28.977Z,93739.53
2023-03-07T06:10:08.953Z,93742.94
2023-03-07T06:13:06.962Z,93737.16
2023-03-07T06:15:57.973Z,93743.06
2023-03-07T06:18:32.067Z,93738.09
2023-03-07T06:21:22.963Z,93739.00
2023-03-07T06:24:02.972Z,93743.25
2023-03-07T06:26:56.987Z,93749.25
2023-03-07T06:29:50.979Z,93748.50
2023-03-07T06:32:45.976Z,93751.97
2023-03-07T06:35:32.997Z,93748.66
2023-03-07T06:38:13.003Z,93743.69
2023-03-07T06:41:09.978Z,93744.56
2023-03-07T06:43:59.974Z,93743.75
2023-03-07T06:46:33.093Z,93747.13
2023-03-07T06:49:19.982Z,93743.00
2023-03-07T06:51:53.121Z,93743.00
2023-03-07T06:54:39.967Z,93733.81
2023-03-07T06:57:13.080Z,93725.47
2023-03-07T06:59:59.983Z,93733.88
2023-03-07T07:02:33.219Z,93730.56
2023-03-07T07:05:19.992Z,93728.88
2023-03-07T07:07:53.112Z,93731.41
2023-03-07T07:10:40.013Z,93725.56
2023-03-07T07:13:13.084Z,93727.28
2023-03-07T07:15:59.984Z,93728.97
2023-03-07T07:18:33.089Z,93723.94
2023-03-07T07:21:20.011Z,93734.00
2023-03-07T07:23:53.106Z,93722.25
2023-03-07T07:26:39.980Z,93728.94
2023-03-07T07:29:13.660Z,93720.56
2023-03-07T07:32:00.046Z,93727.28
2023-03-07T07:34:33.128Z,93718.03
2023-03-07T07:37:20.034Z,93724.75
2023-03-07T07:39:53.074Z,93718.91
2023-03-07T07:42:40.012Z,93718.03
2023-03-07T07:45:14.096Z,93715.50
2023-03-07T07:48:01.000Z,93713.81
2023-03-07T07:50:34.152Z,93712.09
2023-03-07T07:53:24.000Z,93711.25
2023-03-07T07:56:04.024Z,93713.69
2023-03-07T07:58:51.014Z,93715.28
2023-03-07T08:01:37.046Z,93706.81
2023-03-07T08:04:31.015Z,93710.88
2023-03-07T08:07:25.010Z,93709.00
2023-03-07T08:10:12.037Z,93712.19
2023-03-07T08:12:52.005Z,93712.94
2023-03-07T08:15:46.077Z,93711.19
2023-03-07T08:18:33.020Z,93708.59
2023-03-07T08:21:06.206Z,93715.25
2023-03-07T08:23:53.047Z,93710.97
2023-03-07T08:26:26.727Z,93712.56
2023-03-07T08:29:13.032Z,93716.66
2023-03-07T08:31:51.827Z,93712.31
2023-03-07T08:34:39.094Z,93717.19
2023-03-07T08:37:12.193Z,93717.88
2023-03-07T08:39:59.007Z,93713.53
2023-03-07T08:42:32.185Z,93715.09
2023-03-07T08:45:19.026Z,93721.66
2023-03-07T08:47:52.137Z,93719.00
2023-03-07T08:50:39.030Z,93722.19
2023-03-07T08:53:19.013Z,93717.78
2023-03-07T08:56:13.052Z,93716.88
2023-03-07T08:59:07.024Z,93715.03
2023-03-07T09:01:54.126Z,93708.16
2023-03-07T09:04:27.173Z,93713.03
2023-03-07T09:07:14.038Z,93712.69
2023-03-07T09:09:54.027Z,93717.56
2023-03-07T09:12:48.030Z,93710.53
2023-03-07T09:15:42.037Z,93707.88
2023-03-07T09:18:36.020Z,93701.19
2023-03-07T09:21:30.035Z,93695.38
2023-03-07T09:24:24.056Z,93695.22
2023-03-07T09:27:18.059Z,93694.38
2023-03-07T09:30:12.053Z,93677.38
2023-03-07T09:33:06.075Z,93682.41
2023-03-07T09:36:00.120Z,93679.78
2023-03-07T09:38:57.754Z,93677.19
2023-03-07T09:42:20.056Z,93671.41
2023-03-07T09:45:26.066Z,93669.66
2023-03-07T09:48:11.143Z,93664.63
2023-03-07T09:51:11.501Z,93668.06
2023-03-07T09:54:15.070Z,93668.13
2023-03-07T09:57:15.340Z,93663.00
2023-03-07T10:00:07.136Z,93658.75
2023-03-07T10:02:56.175Z,93655.41
2023-03-07T10:05:51.060Z,93653.66
2023-03-07T10:08:40.062Z,93652.69
2023-03-07T10:12:05.002Z,93651.72
2023-03-07T10:15:29.083Z,93651.47
2023-03-07T10:18:25.069Z,93640.31
2023-03-07T10:21:26.062Z,93643.53
2023-03-07T10:24:48.144Z,93633.22
2023-03-07T10:27:23.164Z,93628.97
2023-03-07T10:30:22.052Z,93619.59
2023-03-07T10:33:09.072Z,93629.63
2023-03-07T10:36:05.108Z,93622.03
2023-03-07T10:38:59.090Z,93617.00
2023-03-07T10:41:46.071Z,93615.22
2023-03-07T10:44:25.221Z,93615.03
2023-03-07T10:47:12.068Z,93609.06
2023-03-07T10:49:53.672Z,93604.00
2023-03-07T10:52:57.084Z,93605.00
2023-03-07T10:55:50.070Z,93596.69
2023-03-07T10:58:37.086Z,93596.56
2023-03-07T11:01:34.125Z,93599.88
2023-03-07T11:04:40.105Z,93588.09
2023-03-07T11:07:50.161Z,93582.06
2023-03-07T11:10:53.095Z,93582.94
2023-03-07T11:13:41.063Z,93577.19
2023-03-07T11:16:27.270Z,93569.47
2023-03-07T11:19:41.085Z,93576.09
2023-03-07T11:22:49.055Z,93559.22
2023-03-07T11:25:50.085Z,93560.84
2023-03-07T11:28:42.102Z,93554.81
2023-03-07T11:31:50.081Z,93553.94
2023-03-07T11:35:19.063Z,93551.47
2023-03-07T11:38:27.104Z,93547.91
2023-03-07T11:41:21.111Z,93540.16
2023-03-07T11:44:54.118Z,93543.56
2023-03-07T11:48:29.110Z,93540.91
2023-03-07T11:51:04.709Z,93544.91
2023-03-07T11:54:13.087Z,93528.72
2023-03-07T11:57:00.156Z,93526.94
2023-03-07T12:00:32.106Z,93531.28
2023-03-07T12:03:31.100Z,93533.13
2023-03-07T12:06:39.096Z,93527.25
2023-03-07T12:09:36.155Z,93530.72
2023-03-07T12:12:34.141Z,93516.66
2023-03-07T12:15:43.118Z,93518.69
2023-03-07T12:18:56.118Z,93517.31
2023-03-07T12:22:02.132Z,93514.91
2023-03-07T12:24:50.203Z,93514.06
2023-03-07T12:27:52.120Z,93523.56
2023-03-07T12:30:55.118Z,93512.00
2023-03-07T12:33:44.113Z,93516.44
2023-03-07T12:36:27.309Z,93518.16
2023-03-07T12:39:38.137Z,93516.53
2023-03-07T12:42:35.238Z,93514.13
2023-03-07T12:45:30.142Z,93514.06
2023-03-07T12:48:21.125Z,93511.41
2023-03-07T12:51:29.237Z,93502.88
2023-03-07T12:54:31.145Z,93513.03
2023-03-07T12:57:48.110Z,93508.72
2023-03-07T13:00:36.115Z,93507.91
2023-03-07T13:03:10.219Z,93505.25
2023-03-07T13:05:58.173Z,93507.72
2023-03-07T13:08:32.321Z,93503.44
2023-03-07T13:11:34.350Z,93500.88
2023-03-07T13:14:10.259Z,93493.22
2023-03-07T13:17:01.124Z,93493.19
2023-03-07T13:19:50.107Z,93487.22
2023-03-07T13:22:44.136Z,93489.72
2023-03-07T13:25:33.155Z,93489.88
2023-03-07T13:28:08.228Z,93489.94
2023-03-07T13:31:20.354Z,93491.56
2023-03-07T13:33:53.354Z,93494.28
2023-03-07T13:36:43.210Z,93488.41
2023-03-07T13:40:15.166Z,93480.88
2023-03-07T13:43:09.162Z,93475.94
2023-03-07T13:46:17.177Z,93476.03
2023-03-07T13:49:04.175Z,93481.97
2023-03-07T13:51:44.268Z,93477.75
2023-03-07T13:54:38.150Z,93473.56
2023-03-07T13:57:30.041Z,93465.94
2023-03-07T14:00:04.823Z,93469.22
2023-03-07T14:02:52.256Z,93474.16
2023-03-07T14:05:26.214Z,93471.50
2023-03-07T14:08:21.148Z,93478.94
2023-03-07T14:10:55.295Z,93478.91
2023-03-07T14:14:16.175Z,93477.97
2023-03-07T14:16:56.147Z,93471.91
2023-03-07T14:19:56.153Z,93461.84
2023-03-07T14:22:58.164Z,93461.97
2023-03-07T14:25:41.290Z,93458.53
2023-03-07T14:28:34.157Z,93453.66
2023-03-07T14:31:10.337Z,93451.25
2023-03-07T14:33:58.174Z,93451.34
2023-03-07T14:36:36.313Z,93453.09
2023-03-07T14:39:23.187Z,93449.81
2023-03-07T14:42:03.257Z,93454.00
2023-03-07T14:45:17.174Z,93446.50
2023-03-07T14:48:14.250Z,93445.78
2023-03-07T14:51:01.152Z,93443.28
2023-03-07T14:53:38.273Z,93451.00
2023-03-07T14:56:34.167Z,93440.91
2023-03-07T14:59:27.969Z,93441.75
2023-03-07T15:02:32.160Z,93442.66
2023-03-07T15:05:25.188Z,93446.00
2023-03-07T15:08:05.163Z,93450.19
2023-03-07T15:10:56.149Z,93452.78
2023-03-07T15:13:48.204Z,93446.84
2023-03-07T15:16:48.146Z,93446.03
2023-03-07T15:19:49.186Z,93446.19
2023-03-07T15:22:39.232Z,93449.56
2023-03-07T15:25:35.171Z,93451.28
2023-03-07T15:28:27.185Z,93455.53
2023-03-07T15:31:00.320Z,93443.06
2023-03-07T15:33:47.191Z,93441.53
2023-03-07T15:36:20.756Z,93440.72
2023-03-07T15:39:33.214Z,93440.84
2023-03-07T15:42:12.400Z,93449.34
2023-03-07T15:45:06.203Z,93457.06
2023-03-07T15:47:48.200Z,93448.75
2023-03-07T15:50:42.208Z,93449.72
2023-03-07T15:54:07.193Z,93462.41
2023-03-07T15:57:08.212Z,93454.88
2023-03-07T16:00:27.195Z,93456.63
2023-03-07T16:03:18.418Z,93452.50
2023-03-07T16:06:07.210Z,93454.28
2023-03-07T16:08:47.196Z,93449.28
2023-03-07T16:11:41.207Z,93453.56
2023-03-07T16:14:38.210Z,93453.66
2023-03-07T16:17:53.090Z,93459.63
2023-03-07T16:20:40.208Z,93460.59
2023-03-07T16:23:19.339Z,93447.22
2023-03-07T16:26:10.198Z,93449.84
2023-03-07T16:28:44.254Z,93448.28
2023-03-07T16:31:31.351Z,93440.81
2023-03-07T16:34:11.195Z,93445.13
2023-03-07T16:37:05.196Z,93451.09
2023-03-07T16:39:52.206Z,93458.75
2023-03-07T16:42:30.687Z,93449.63
2023-03-07T16:45:35.258Z,93453.91
2023-03-07T16:48:08.305Z,93461.53
2023-03-07T16:50:55.209Z,93461.59
2023-03-07T16:53:28.373Z,93469.22
2023-03-07T16:56:25.233Z,93472.66
2023-03-07T16:58:59.359Z,93484.44
2023-03-07T17:01:47.256Z,93483.66
2023-03-07T17:04:28.200Z,93485.38
2023-03-07T17:07:33.211Z,93479.50
2023-03-07T17:10:20.217Z,93490.50
2023-03-07T17:12:55.082Z,93484.63
2023-03-07T17:15:43.275Z,93488.88
2023-03-07T17:18:17.395Z,93476.28
2023-03-07T17:21:04.230Z,93472.97
2023-03-07T17:23:37.366Z,93477.16
2023-03-07T17:26:37.204Z,93472.97
2023-03-07T17:29:16.324Z,93469.63
2023-03-07T17:32:03.333Z,93478.09
2023-03-07T17:34:39.433Z,93479.81
2023-03-07T17:37:26.245Z,93481.56
2023-03-07T17:40:00.585Z,93481.59
2023-03-07T17:42:49.236Z,93489.22
2023-03-07T17:45:25.337Z,93485.94
2023-03-07T17:48:12.259Z,93484.25
2023-03-07T17:50:46.390Z,93481.81
2023-03-07T17:53:40.209Z,93491.94
2023-03-07T17:56:34.239Z,93490.31
2023-03-07T17:59:28.235Z,93500.44
2023-03-07T18:02:25.246Z,93497.06
2023-03-07T18:05:13.227Z,93499.66
2023-03-07T18:07:58.242Z,93501.34
2023-03-07T18:10:52.235Z,93497.13
2023-03-07T18:13:39.262Z,93501.41
2023-03-07T18:16:13.378Z,93501.41
2023-03-07T18:19:02.900Z,93494.72
2023-03-07T18:21:37.388Z,93498.91
2023-03-07T18:24:30.350Z,93495.56
2023-03-07T18:27:08.651Z,93495.59
2023-03-07T18:29:55.304Z,93494.72
2023-03-07T18:32:29.301Z,93484.63
2023-03-07T18:35:16.252Z,93477.06
2023-03-07T18:37:56.251Z,93478.75
2023-03-07T18:40:43.290Z,93484.63
2023-03-07T18:43:23.290Z,93481.28
2023-03-07T18:46:15.339Z,93486.31
2023-03-07T18:48:49.354Z,93488.78
2023-03-07T18:51:36.251Z,93490.47
2023-03-07T18:54:09.571Z,93486.25
2023-03-07T18:56:56.249Z,93487.06
2023-03-07T18:59:36.262Z,93487.03
2023-03-07T19:02:30.316Z,93481.16
2023-03-07T19:05:17.239Z,93476.91
2023-03-07T19:07:50.372Z,93481.97
2023-03-07T19:10:37.238Z,93481.16
2023-03-07T19:13:11.517Z,93482.03
2023-03-07T19:16:07.322Z,93478.69
2023-03-07T19:18:48.289Z,93487.09
2023-03-07T19:21:43.264Z,93489.63
2023-03-07T19:24:30.254Z,93483.75
2023-03-07T19:27:03.357Z,93479.56
2023-03-07T19:29:50.263Z,93484.59
2023-03-07T19:32:23.513Z,93473.66
2023-03-07T19:35:11.276Z,93481.25
2023-03-07T19:37:52.308Z,93461.88
2023-03-07T19:40:46.284Z,93460.25
2023-03-07T19:43:41.393Z,93457.72
2023-03-07T19:46:35.272Z,93456.91
2023-03-07T19:49:33.267Z,93467.94
2023-03-07T19:52:27.288Z,93461.22
2023-03-07T19:55:21.312Z,93466.31
2023-03-07T19:58:15.275Z,93464.59
2023-03-07T20:01:09.369Z,93468.81
2023-03-07T20:03:57.280Z,93468.81
2023-03-07T20:06:33.429Z,93467.94
2023-03-07T20:09:20.270Z,93462.06
2023-03-07T20:12:00.280Z,93462.91
2023-03-07T20:14:54.260Z,93451.16
2023-03-07T20:17:48.295Z,93458.75
2023-03-07T20:20:42.273Z,93457.97
2023-03-07T20:23:36.295Z,93451.22
2023-03-07T20:26:29.298Z,93462.13
2023-03-07T20:29:10.262Z,93452.88
2023-03-07T20:32:04.382Z,93453.69
2023-03-07T20:34:51.284Z,93451.94
2023-03-07T20:37:24.399Z,93438.41
2023-03-07T20:40:15.329Z,93435.00
2023-03-07T20:42:48.403Z,93435.84
2023-03-07T20:45:35.309Z,93450.09
2023-03-07T20:48:15.282Z,93452.59
2023-03-07T20:51:27.320Z,93446.69
2023-03-07T20:54:29.296Z,93433.22
2023-03-07T20:57:23.319Z,93437.38
2023-03-07T21:00:17.319Z,93434.03
2023-03-07T21:03:06.206Z,93442.44
2023-03-07T21:05:39.472Z,93443.22
2023-03-07T21:08:26.304Z,93445.72
2023-03-07T21:11:20.434Z,93437.28
2023-03-07T21:14:14.319Z,93430.50
2023-03-07T21:17:01.430Z,93438.91
2023-03-07T21:19:34.922Z,93446.47
2023-03-07T21:22:21.705Z,93442.25
2023-03-07T21:24:55.549Z,93440.53
2023-03-07T21:27:42.401Z,93447.28
2023-03-07T21:30:19.752Z,93443.06
2023-03-07T21:33:06.401Z,93436.31
2023-03-07T21:35:49.499Z,93430.38
2023-03-07T21:38:37.359Z,93438.78
2023-03-07T21:41:19.345Z,93437.09
2023-03-07T21:44:17.304Z,93439.66
2023-03-07T21:47:11.607Z,93426.19
2023-03-07T21:49:59.638Z,93414.38
2023-03-07T21:52:42.331Z,93409.28
2023-03-07T21:55:31.338Z,93410.16
2023-03-07T21:58:12.466Z,93416.84
2023-03-07T22:01:07.355Z,93415.16
2023-03-07T22:04:01.381Z,93413.44
2023-03-07T22:06:48.322Z,93423.56
2023-03-07T22:09:28.331Z,93420.25
2023-03-07T22:12:15.324Z,93418.53
2023-03-07T22:14:55.328Z,93401.69
2023-03-07T22:17:50.320Z,93405.03
2023-03-07T22:20:37.313Z,93398.28
2023-03-07T22:23:10.430Z,93398.28
2023-03-07T22:25:57.311Z,93405.03
2023-03-07T22:28:37.336Z,93405.00
2023-03-07T22:31:31.361Z,93399.09
2023-03-07T22:34:18.329Z,93399.97
2023-03-07T22:36:51.503Z,93396.56
2023-03-07T22:39:38.334Z,93401.63
2023-03-07T22:42:11.438Z,93407.47
2023-03-07T22:44:58.326Z,93401.56
2023-03-07T22:47:31.479Z,93389.78
2023-03-07T22:50:18.356Z,93391.44
2023-03-07T22:52:51.469Z,93385.56
2023-03-07T22:55:38.348Z,93390.56
2023-03-07T22:58:11.422Z,93385.50
2023-03-07T23:00:58.360Z,93395.59
2023-03-07T23:03:31.542Z,93393.06
2023-03-07T23:06:18.370Z,93391.38
2023-03-07T23:08:52.497Z,93391.38
2023-03-07T23:11:40.354Z,93391.34
2023-03-07T23:14:20.353Z,93377.06
2023-03-07T23:17:07.348Z,93382.13
2023-03-07T23:19:40.518Z,93386.31
2023-03-07T23:22:27.360Z,93378.75
2023-03-07T23:25:00.463Z,93375.38
2023-03-07T23:27:47.376Z,93380.44
2023-03-07T23:30:28.349Z,93373.66
2023-03-07T23:33:22.366Z,93374.50
2023-03-07T23:36:09.365Z,93368.59
2023-03-07T23:38:42.469Z,93370.25
2023-03-07T23:41:29.361Z,93382.88
2023-03-07T23:44:04.447Z,93372.84
2023-03-07T23:46:51.391Z,93377.00
2023-03-07T23:49:24.550Z,93382.06
2023-03-07T23:52:11.427Z,93366.91
2023-03-07T23:54:51.467Z,93365.19
2023-03-07T23:57:45.342Z,93363.50
